Time;durP1;ratioP1;P1;durP2;ratioP2;P2;SDS_P1;SDS_P2;PMS_P1;PMS_P2;Temp;Humidity;BMP_temperature;BMP_pressure;BME280_temperature;BME280_humidity;BME280_pressure;Samples;Min_cycle;Max_cycle;Signal;HPM_P1;HPM_P2
2023/05/03 00:00:15;;;;;;;6.27;3.60;;;7.90;99.90;;;7.40;90.34;98767.13;5036750;28;20551;-76
2023/05/03 00:02:44;;;;;;;4.30;3.50;;;7.80;99.90;;;7.51;91.17;98801.69;5046751;28;20456;-77
2023/05/03 00:05:13;;;;;;;5.73;4.10;;;7.80;99.90;;;7.29;91.41;98773.72;5046366;28;20804;-76
2023/05/03 00:07:43;;;;;;;7.33;4.10;;;7.70;99.90;;;7.31;91.96;98799.41;5035768;28;20483;-76
2023/05/03 00:10:11;;;;;;;6.27;4.60;;;7.60;99.90;;;7.23;92.58;98797.59;5035663;28;20453;-75
2023/05/03 00:12:40;;;;;;;9.63;4.30;;;7.60;99.90;;;7.16;92.80;98785.03;5025049;28;20630;-75
2023/05/03 00:15:09;;;;;;;5.80;4.30;;;7.50;99.90;;;7.07;93.20;98790.44;5035111;28;20454;-74
2023/05/03 00:17:36;;;;;;;4.20;3.80;;;7.50;99.90;;;7.18;92.49;98799.13;5045641;28;20462;-73
2023/05/03 00:20:06;;;;;;;4.73;3.30;;;7.40;99.90;;;7.29;90.68;98796.06;5035024;28;20460;-74
2023/05/03 00:22:34;;;;;;;5.70;4.10;;;7.40;99.90;;;7.09;92.83;98793.78;5037090;28;21576;-72
2023/05/03 00:25:01;;;;;;;5.83;4.37;;;7.30;99.90;;;6.99;93.61;98789.63;5030285;28;20512;-71
2023/05/03 00:27:29;;;;;;;6.53;4.53;;;7.30;99.90;;;6.94;93.65;98790.97;5033403;28;20503;-73
2023/05/03 00:29:56;;;;;;;6.17;4.77;;;7.20;99.90;;;6.86;93.87;98782.09;5035509;28;20542;-72
2023/05/03 00:32:23;;;;;;;6.00;4.80;;;7.10;99.90;;;6.87;94.34;98789.16;5035095;28;20465;-76
2023/05/03 00:34:53;;;;;;;6.33;4.30;;;7.00;99.90;;;6.77;94.29;98775.94;5020834;28;20911;-74
2023/05/03 00:37:22;;;;;;;7.30;4.83;;;7.00;99.90;;;6.82;94.47;98789.66;5046712;28;20503;-73
2023/05/03 00:39:49;;;;;;;6.47;4.60;;;7.00;99.90;;;6.69;94.66;98774.09;5041903;28;20485;-74
2023/05/03 00:42:17;;;;;;;7.83;4.40;;;6.90;99.90;;;6.70;95.28;98781.16;5045408;28;20455;-74
2023/05/03 00:44:44;;;;;;;6.47;4.40;;;6.80;99.90;;;6.64;95.55;98779.16;5044951;28;20469;-73
2023/05/03 00:47:11;;;;;;;5.20;4.10;;;6.80;99.90;;;6.64;95.47;98771.91;5032369;28;20447;-75
2023/05/03 00:49:40;;;;;;;8.47;5.27;;;6.90;99.90;;;6.57;95.48;98772.78;5030804;28;20856;-73
2023/05/03 00:52:07;;;;;;;7.30;5.10;;;6.80;99.90;;;6.62;95.69;98775.81;5037373;28;20456;-72
2023/05/03 00:54:36;;;;;;;5.47;3.97;;;6.80;99.90;;;6.55;95.80;98761.38;5038174;28;20757;-73
2023/05/03 00:57:05;;;;;;;7.87;4.90;;;6.70;99.90;;;6.59;94.88;98770.75;5031819;28;20488;-75
2023/05/03 00:59:33;;;;;;;4.80;4.00;;;6.70;99.90;;;6.51;94.57;98769.78;5013743;28;20460;-73
2023/05/03 01:02:00;;;;;;;6.10;4.50;;;6.70;99.90;;;6.49;94.23;98769.13;5034186;28;20478;-75
2023/05/03 01:04:28;;;;;;;8.20;4.43;;;6.70;99.90;;;6.48;94.74;98778.19;5028134;28;20459;-74
2023/05/03 01:07:11;;;;;;;7.20;4.90;;;6.60;99.90;;;6.44;94.63;98771.44;5023734;28;20454;-74
2023/05/03 01:09:51;;;;;;;6.17;5.13;;;6.60;99.90;;;6.35;95.63;98761.75;5045170;28;20526;-73
2023/05/03 01:12:30;;;;;;;8.10;5.63;;;6.60;99.90;;;6.47;95.31;98776.50;5031912;28;20813;-72
2023/05/03 01:15:08;;;;;;;11.57;6.47;;;6.70;99.90;;;6.45;95.18;98772.31;5014956;28;20962;-76
2023/05/03 01:17:39;;;;;;;13.70;6.67;;;6.70;99.90;;;6.50;94.04;98765.41;5030620;28;21218;-72
2023/05/03 01:20:10;;;;;;;8.57;5.70;;;6.80;99.90;;;6.39;94.99;98773.81;5028226;28;21076;-75
2023/05/03 01:22:47;;;;;;;11.10;6.00;;;6.80;99.90;;;6.42;95.03;98773.47;5033729;28;20513;-74
2023/05/03 01:25:16;;;;;;;7.70;4.90;;;6.70;99.90;;;6.18;95.83;98756.41;5033187;28;21254;-74
2023/05/03 01:27:44;;;;;;;7.37;4.33;;;6.60;99.90;;;6.05;97.20;98766.81;5045762;28;20471;-74
2023/05/03 01:30:13;;;;;;;8.67;4.90;;;6.60;99.90;;;5.98;97.41;98771.13;5047933;28;20465;-74
2023/05/03 01:33:03;;;;;;;6.03;4.40;;;6.50;99.90;;;6.02;97.70;98762.59;5031718;28;20564;-74
2023/05/03 01:35:41;;;;;;;8.00;5.20;;;6.40;99.90;;;5.93;97.97;98764.41;5038368;28;20945;-75
2023/05/03 01:38:09;;;;;;;8.60;5.00;;;6.40;99.90;;;5.78;97.48;98750.84;5037114;28;20544;-74
2023/05/03 01:40:45;;;;;;;6.77;5.20;;;6.30;99.90;;;5.86;98.02;98760.75;5043506;28;20955;-75
2023/05/03 01:43:14;;;;;;;8.10;5.40;;;6.30;99.90;;;5.86;97.51;98759.88;5042819;28;20463;-71
2023/05/03 01:45:42;;;;;;;8.27;5.00;;;6.20;99.90;;;5.68;98.34;98745.63;5016699;28;20454;-74
2023/05/03 01:48:11;;;;;;;9.30;5.80;;;6.20;99.90;;;5.86;97.53;98760.75;5017251;28;20526;-72
2023/05/03 01:50:38;;;;;;;10.50;5.80;;;6.20;99.90;;;5.69;98.38;98762.56;5027211;28;20465;-72
2023/05/03 01:53:06;;;;;;;8.93;6.10;;;6.10;99.90;;;5.78;98.03;98768.78;5029438;28;21358;-72
2023/05/03 01:55:33;;;;;;;6.40;4.50;;;6.10;99.90;;;5.91;96.71;98766.44;5034698;28;20834;-72
2023/05/03 01:58:01;;;;;;;9.40;5.07;;;6.20;99.90;;;5.64;97.17;98771.09;5042215;28;20442;-73
2023/05/03 02:00:29;;;;;;;9.40;4.90;;;6.10;99.90;;;5.68;96.76;98745.63;5010958;28;21101;-75
2023/05/03 02:02:57;;;;;;;7.83;4.70;;;6.10;99.90;;;5.64;97.58;98768.41;5032517;28;20510;-71
2023/05/03 02:05:24;;;;;;;7.27;5.17;;;6.00;99.90;;;5.63;96.98;98763.22;5014212;28;21036;-76
2023/05/03 02:07:52;;;;;;;10.10;5.57;;;6.00;99.90;;;5.58;96.65;98771.75;5036250;28;20478;-71
2023/05/03 02:10:19;;;;;;;8.50;4.87;;;5.90;99.90;;;5.20;98.16;98728.44;5034277;28;20473;-71
2023/05/03 02:12:46;;;;;;;7.73;5.13;;;5.80;99.90;;;5.50;97.63;98759.19;5036701;28;20475;-73
2023/05/03 02:15:15;;;;;;;7.77;5.30;;;5.80;99.90;;;5.47;96.46;98774.75;5036124;28;20465;-74
2023/05/03 02:17:44;;;;;;;7.70;5.77;;;5.80;99.90;;;5.39;97.68;98771.06;5027419;28;20545;-74
2023/05/03 02:20:11;;;;;;;10.40;6.07;;;5.70;99.90;;;5.36;96.84;98782.09;5038025;28;20458;-74
2023/05/03 02:22:39;;;;;;;10.70;6.13;;;5.70;99.90;;;5.35;97.58;98772.38;5010619;28;20604;-75
2023/05/03 02:25:07;;;;;;;11.53;6.17;;;5.70;99.90;;;5.32;97.79;98775.38;5034967;28;20941;-73
2023/05/03 02:27:34;;;;;;;9.63;5.73;;;5.70;99.90;;;5.36;97.28;98778.59;5022578;28;20496;-76
2023/05/03 02:30:02;;;;;;;9.77;5.63;;;5.70;99.90;;;5.36;96.92;98774.03;5049296;28;20469;-71
2023/05/03 02:32:30;;;;;;;10.67;5.63;;;5.60;99.90;;;5.29;97.56;98773.03;5040916;28;20455;-74
2023/05/03 02:34:58;;;;;;;8.07;5.50;;;5.60;99.90;;;5.26;97.41;98778.72;5047118;28;20452;-75
2023/05/03 02:37:25;;;;;;;9.80;5.40;;;5.60;99.90;;;5.12;97.15;98757.91;5046017;28;20542;-73
2023/05/03 02:39:53;;;;;;;12.73;6.30;;;5.60;99.90;;;5.23;96.96;98781.69;5049477;28;20852;-75
2023/05/03 02:42:20;;;;;;;13.30;6.40;;;5.50;99.90;;;5.21;97.77;98773.84;5047169;28;20465;-73
2023/05/03 02:44:47;;;;;;;11.40;6.63;;;5.50;99.90;;;5.20;97.22;98772.16;5040374;28;20478;-74
2023/05/03 02:47:14;;;;;;;8.50;5.80;;;5.50;99.90;;;5.15;96.82;98761.06;5039392;28;20453;-74
2023/05/03 02:49:43;;;;;;;12.90;6.37;;;5.40;99.90;;;5.09;96.90;98759.06;5027463;28;20513;-75
2023/05/03 02:52:10;;;;;;;9.77;5.70;;;5.40;99.90;;;4.95;96.81;98761.34;5034910;28;20508;-76
2023/05/03 02:54:37;;;;;;;9.53;6.27;;;5.40;99.90;;;5.01;97.53;98773.25;5020544;28;20464;-75
2023/05/03 02:57:04;;;;;;;11.93;5.50;;;5.30;99.90;;;5.04;97.73;98774.78;5007875;28;20558;-75
2023/05/03 02:59:32;;;;;;;11.27;5.87;;;5.30;99.90;;;5.00;98.62;98776.94;5032830;28;20467;-76
2023/05/03 03:01:59;;;;;;;9.60;5.07;;;5.40;99.90;;;5.02;97.69;98771.44;5044554;28;20514;-72
2023/05/03 03:04:26;;;;;;;9.83;5.83;;;5.30;99.90;;;4.89;99.06;98775.41;5036911;28;20569;-77
2023/05/03 03:06:56;;;;;;;9.60;6.10;;;5.30;99.90;;;4.94;99.40;98781.09;5033089;28;20466;-73
2023/05/03 03:09:23;;;;;;;11.07;7.33;;;5.40;99.90;;;4.94;99.23;98780.28;5036341;28;20658;-75
2023/05/03 03:11:52;;;;;;;13.13;5.40;;;5.30;99.90;;;4.97;98.82;98777.28;5038694;28;20490;-71
2023/05/03 03:14:19;;;;;;;8.80;5.23;;;5.30;99.90;;;4.96;98.79;98778.28;5035425;28;20483;-75
2023/05/03 03:16:46;;;;;;;11.40;5.47;;;5.30;99.90;;;5.05;97.86;98769.25;5033925;28;20455;-73
2023/05/03 03:19:13;;;;;;;12.80;6.90;;;5.30;99.90;;;4.99;97.68;98775.25;5034416;28;22258;-75
2023/05/03 03:21:41;;;;;;;9.80;5.50;;;5.30;99.90;;;5.07;96.63;98775.28;5033008;28;20492;-75
2023/05/03 03:24:09;;;;;;;12.70;6.10;;;5.20;99.90;;;5.07;96.51;98769.94;5014113;28;20862;-75
2023/05/03 03:26:37;;;;;;;7.70;5.50;;;5.20;99.90;;;5.00;97.10;98770.72;5037358;28;20643;-75
2023/05/03 03:29:04;;;;;;;10.47;5.47;;;5.30;99.90;;;5.01;96.50;98775.13;5035167;28;20472;-73
2023/05/03 03:31:31;;;;;;;9.03;6.30;;;5.30;99.90;;;4.99;96.62;98783.31;5047956;28;20478;-75
2023/05/03 03:33:58;;;;;;;13.50;6.93;;;5.20;99.90;;;5.00;96.38;98784.13;5031790;28;20549;-74
2023/05/03 03:36:26;;;;;;;8.57;5.93;;;5.20;99.90;;;5.03;95.81;98784.66;5042617;28;20564;-76
2023/05/03 03:38:54;;;;;;;10.33;6.13;;;5.20;99.90;;;5.00;95.65;98779.63;5030197;28;20969;-72
2023/05/03 03:41:22;;;;;;;11.70;5.97;;;5.10;99.90;;;4.87;95.77;98795.28;5017385;28;20460;-75
2023/05/03 03:43:49;;;;;;;11.33;7.10;;;5.10;99.90;;;4.83;96.34;98773.34;5035746;28;20490;-75
2023/05/03 03:46:17;;;;;;;8.00;5.50;;;5.10;99.90;;;4.82;96.47;98785.91;5034252;28;20518;-74
2023/05/03 03:48:44;;;;;;;9.00;5.67;;;5.00;99.90;;;4.78;96.92;98781.88;5026550;28;20487;-72
2023/05/03 03:51:11;;;;;;;12.77;6.77;;;5.00;99.90;;;4.84;96.16;98790.25;5017453;28;20518;-75
2023/05/03 03:53:39;;;;;;;9.70;5.90;;;5.00;99.90;;;4.64;97.16;98779.78;5029544;28;20545;-73
2023/05/03 03:56:07;;;;;;;15.20;5.63;;;5.00;99.90;;;4.76;96.74;98799.91;5021124;28;20463;-73
2023/05/03 03:58:35;;;;;;;8.93;5.53;;;5.00;99.90;;;4.80;96.21;98795.94;5034505;28;20470;-77
2023/05/03 04:01:03;;;;;;;10.93;6.50;;;5.10;99.90;;;4.21;97.36;98729.69;5032746;28;20896;-75
2023/05/03 04:03:30;;;;;;;14.27;6.87;;;5.10;99.90;;;4.88;96.77;98807.69;5036830;28;20517;-73
2023/05/03 04:05:57;;;;;;;10.27;6.30;;;5.10;99.90;;;4.84;97.21;98800.97;5019111;28;20601;-71
2023/05/03 04:08:25;;;;;;;16.60;7.70;;;5.10;99.90;;;4.76;97.05;98802.59;5040863;28;20475;-73
2023/05/03 04:10:52;;;;;;;14.53;7.37;;;5.10;99.90;;;4.72;96.95;98808.44;5036126;28;20441;-74
2023/05/03 04:13:19;;;;;;;11.70;5.87;;;5.10;99.90;;;4.78;96.96;98803.28;5043255;28;20470;-75
2023/05/03 04:15:48;;;;;;;10.40;7.70;;;5.10;99.90;;;4.77;96.36;98814.97;5037193;28;20471;-75
2023/05/03 04:18:15;;;;;;;9.50;5.70;;;5.20;99.90;;;4.88;95.94;98818.38;5031873;28;21065;-73
2023/05/03 04:20:42;;;;;;;10.80;6.20;;;5.20;99.90;;;4.96;96.86;98810.41;5032251;28;20512;-75
2023/05/03 04:23:09;;;;;;;10.83;6.50;;;5.30;99.90;;;5.07;96.00;98820.81;5032141;28;20462;-74
2023/05/03 04:25:37;;;;;;;13.40;6.67;;;5.40;99.90;;;5.58;93.53;98830.75;5015765;28;20460;-73
2023/05/03 04:28:05;;;;;;;16.87;7.13;;;5.70;99.90;;;6.12;92.40;98831.38;5013192;28;21203;-72
2023/05/03 04:30:34;;;;;;;16.63;7.83;;;6.20;99.90;;;6.36;89.20;98828.66;5017041;28;20486;-73
2023/05/03 04:33:03;;;;;;;19.83;7.67;;;6.60;99.90;;;6.62;87.33;98810.72;5024850;28;20460;-72
2023/05/03 04:35:31;;;;;;;12.80;6.67;;;7.10;99.90;;;7.23;87.17;98829.03;5018463;28;20446;-74
2023/05/03 04:37:58;;;;;;;14.97;7.27;;;7.50;99.90;;;7.51;83.06;98831.25;5043603;28;20634;-73
2023/05/03 04:40:25;;;;;;;11.30;6.97;;;7.90;99.90;;;7.87;81.74;98825.31;5018419;28;20457;-68
2023/05/03 04:42:52;;;;;;;11.10;7.23;;;8.30;96.80;;;8.36;80.16;98844.81;5031106;28;20644;-68
2023/05/03 04:45:20;;;;;;;10.70;7.17;;;8.70;93.50;;;8.65;77.21;98851.34;5031392;28;20871;-69
2023/05/03 04:47:47;;;;;;;9.43;5.80;;;9.00;90.60;;;8.87;76.13;98857.69;5025836;28;20501;-69
2023/05/03 04:50:16;;;;;;;10.03;6.00;;;9.20;89.30;;;8.94;74.98;98852.41;5028477;28;21754;-78
2023/05/03 04:52:44;;;;;;;7.20;5.60;;;9.40;87.10;;;8.68;73.21;98786.31;5027613;28;20456;-73
2023/05/03 04:55:11;;;;;;;10.37;6.83;;;9.60;85.10;;;9.08;72.60;98853.44;5031165;28;20551;-70
2023/05/03 04:57:39;;;;;;;15.43;5.30;;;9.60;83.70;;;8.79;74.27;98857.75;5035420;28;20452;-72
2023/05/03 05:00:10;;;;;;;9.60;5.60;;;9.70;83.20;;;8.93;73.24;98862.34;5017937;28;20756;-71
2023/05/03 05:02:37;;;;;;;6.97;4.53;;;9.70;83.20;;;9.04;71.68;98871.00;5037492;28;20838;-74
2023/05/03 05:05:05;;;;;;;7.70;5.60;;;9.60;82.50;;;9.06;71.03;98864.41;5026564;28;20920;-70
2023/05/03 05:07:34;;;;;;;8.13;5.70;;;9.50;82.60;;;8.59;72.63;98868.25;5015083;28;20827;-72
2023/05/03 05:10:01;;;;;;;8.10;5.90;;;9.30;82.00;;;8.00;74.32;98875.03;5034158;28;20476;-74
2023/05/03 05:12:29;;;;;;;8.33;5.30;;;8.80;82.60;;;7.67;75.82;98872.53;5029981;28;20604;-74
2023/05/03 05:14:56;;;;;;;8.20;5.13;;;8.30;84.00;;;7.58;76.10;98869.00;5026510;28;20976;-72
2023/05/03 05:17:25;;;;;;;12.10;6.30;;;8.10;85.20;;;7.33;78.07;98880.72;5027408;28;20459;-72
2023/05/03 05:19:52;;;;;;;8.87;5.90;;;7.90;87.00;;;7.34;77.32;98874.31;5009372;28;20465;-74
2023/05/03 05:22:20;;;;;;;10.07;5.43;;;7.80;86.80;;;7.27;77.94;98873.34;5043361;28;20997;-75
2023/05/03 05:24:48;;;;;;;7.40;4.87;;;7.70;87.30;;;7.65;77.24;98875.38;5036433;28;20460;-73
2023/05/03 05:27:15;;;;;;;6.33;5.37;;;8.00;88.20;;;8.28;75.08;98879.91;5029783;28;20448;-73
2023/05/03 05:29:43;;;;;;;11.00;6.03;;;8.60;86.30;;;8.22;74.73;98882.28;5037017;28;20654;-73
2023/05/03 05:32:11;;;;;;;9.23;5.80;;;8.90;84.10;;;8.40;73.92;98873.06;5039144;28;20453;-75
2023/05/03 05:34:39;;;;;;;11.90;6.63;;;8.90;84.10;;;8.48;73.77;98870.31;5039998;28;20790;-75
2023/05/03 05:37:06;;;;;;;9.20;6.03;;;9.10;84.00;;;8.31;74.63;98879.53;5031403;28;20461;-73
2023/05/03 05:39:33;;;;;;;8.93;6.07;;;9.10;83.80;;;8.54;74.44;98889.47;5042511;28;20858;-74
2023/05/03 05:42:01;;;;;;;7.40;5.60;;;9.10;84.00;;;8.63;74.40;98891.09;5032505;28;20921;-74
2023/05/03 05:44:30;;;;;;;8.20;6.10;;;9.20;83.70;;;9.10;71.38;98858.66;5039671;28;21054;-72
2023/05/03 05:46:57;;;;;;;10.57;6.23;;;9.70;82.60;;;8.90;71.54;98872.66;5032716;28;20511;-72
2023/05/03 05:49:24;;;;;;;7.90;5.90;;;9.80;81.60;;;8.90;71.76;98899.63;5042690;28;20974;-70
2023/05/03 05:51:51;;;;;;;9.70;6.20;;;9.70;81.40;;;8.77;71.95;98895.69;5034082;28;20519;-74
2023/05/03 05:54:19;;;;;;;9.07;5.23;;;9.40;82.00;;;8.78;71.93;98891.97;5033125;28;20467;-71
2023/05/03 05:56:46;;;;;;;8.57;6.53;;;9.40;81.90;;;8.79;71.74;98893.66;5025819;28;20443;-74
2023/05/03 05:59:15;;;;;;;8.97;6.20;;;9.40;82.10;;;8.90;71.45;98899.63;5030152;28;20915;-72
2023/05/03 06:01:44;;;;;;;9.03;6.17;;;9.40;81.90;;;8.89;72.64;98895.25;5029538;28;20566;-74
2023/05/03 06:04:12;;;;;;;8.53;5.30;;;9.40;82.40;;;8.99;72.03;98895.81;5009450;28;20450;-72
2023/05/03 06:06:39;;;;;;;6.50;4.80;;;9.50;82.40;;;8.80;71.43;98897.19;5034980;28;20575;-75
2023/05/03 06:09:07;;;;;;;7.07;5.43;;;9.30;81.90;;;8.92;71.75;98893.00;5044938;28;21025;-74
2023/05/03 06:11:36;;;;;;;9.07;5.50;;;9.30;82.10;;;8.81;71.68;98892.63;5042879;28;20461;-73
2023/05/03 06:14:08;;;;;;;9.43;5.60;;;9.30;82.20;;;9.11;71.33;98889.97;5026155;28;20468;-75
2023/05/03 06:16:37;;;;;;;8.40;5.87;;;9.40;82.60;;;9.14;71.46;98884.22;5041337;28;20481;-76
2023/05/03 06:19:04;;;;;;;9.20;6.23;;;9.50;82.30;;;9.46;70.62;98890.25;5042239;28;20557;-73
2023/05/03 06:21:31;;;;;;;12.43;6.73;;;9.70;82.40;;;9.44;69.78;98895.84;5018965;28;20450;-76
2023/05/03 06:23:59;;;;;;;8.03;5.80;;;9.80;81.40;;;9.58;68.92;98896.84;5027904;28;21039;-77
2023/05/03 06:26:26;;;;;;;8.93;6.17;;;9.90;81.40;;;9.69;69.38;98875.81;5042775;28;20930;-74
2023/05/03 06:28:53;;;;;;;8.57;5.60;;;10.00;80.20;;;10.07;69.20;98902.63;5048169;28;20456;-75
2023/05/03 06:31:20;;;;;;;8.10;6.23;;;10.30;80.40;;;10.43;66.88;98900.94;5040479;28;20472;-70
2023/05/03 06:33:49;;;;;;;8.23;5.80;;;10.60;79.30;;;10.31;65.74;98900.59;5040640;28;20460;-82
2023/05/03 06:36:16;;;;;;;7.97;6.17;;;10.60;78.60;;;10.34;65.00;98894.81;5038093;28;20461;-76
2023/05/03 06:38:43;;;;;;;10.37;6.50;;;10.60;77.60;;;10.02;65.84;98842.97;5047593;28;20464;-78
2023/05/03 06:41:10;;;;;;;9.10;5.57;;;10.60;77.50;;;10.45;64.97;98888.09;5040366;28;20458;-75
2023/05/03 06:43:37;;;;;;;10.20;6.50;;;10.70;77.10;;;10.25;64.15;98902.19;5044254;28;20465;-77
2023/05/03 06:46:05;;;;;;;8.47;4.90;;;10.70;76.50;;;10.46;63.67;98893.31;5041178;28;20470;-75
2023/05/03 06:48:32;;;;;;;10.13;6.40;;;10.80;75.90;;;10.55;63.57;98879.69;5035829;28;20466;-75
2023/05/03 06:51:00;;;;;;;8.00;6.17;;;11.00;76.00;;;10.76;62.00;98893.16;5041547;28;20521;-77
2023/05/03 06:53:28;;;;;;;7.47;5.40;;;11.10;74.70;;;10.95;62.43;98906.19;5042912;28;20455;-74
2023/05/03 06:55:55;;;;;;;7.20;5.27;;;11.20;74.60;;;11.10;61.24;98892.56;5035693;28;20478;-74
2023/05/03 06:58:23;;;;;;;8.40;6.20;;;11.40;74.10;;;10.89;61.86;98887.00;5029055;28;20531;-74
2023/05/03 07:00:52;;;;;;;9.30;5.83;;;11.30;74.00;;;11.13;60.84;98887.59;5043335;28;20953;-79
2023/05/03 07:03:19;;;;;;;8.53;5.77;;;11.50;73.20;;;11.31;60.54;98894.38;5036368;28;20462;-80
2023/05/03 07:05:48;;;;;;;8.00;4.03;;;11.50;73.40;;;11.50;59.52;98887.41;5050430;28;20457;-74
2023/05/03 07:08:16;;;;;;;6.43;5.30;;;11.70;72.50;;;11.13;61.16;98881.34;5028054;28;20696;-76
2023/05/03 07:10:43;;;;;;;8.00;4.63;;;11.70;72.60;;;11.42;60.74;98874.03;5041962;28;20498;-78
2023/05/03 07:13:11;;;;;;;6.10;4.63;;;11.70;73.10;;;11.57;60.28;98877.44;5025387;28;20531;-76
2023/05/03 07:15:38;;;;;;;7.90;5.33;;;11.80;73.00;;;11.56;59.95;98873.06;5033379;28;20458;-77
2023/05/03 07:18:06;;;;;;;9.37;4.67;;;12.00;72.50;;;11.57;60.73;98874.72;5047541;28;20824;-74
2023/05/03 07:20:33;;;;;;;7.83;5.60;;;12.00;72.50;;;12.19;58.95;98869.34;5054348;28;20452;-77
2023/05/03 07:23:00;;;;;;;7.57;5.20;;;12.30;72.30;;;12.17;58.75;98867.91;5072430;28;20642;-74
2023/05/03 07:25:29;;;;;;;8.70;4.50;;;12.40;71.40;;;12.38;58.05;98853.34;5058413;28;20449;-75
2023/05/03 07:27:56;;;;;;;6.63;4.60;;;12.60;70.80;;;12.15;58.51;98867.28;5046150;28;20961;-77
2023/05/03 07:30:24;;;;;;;8.33;5.30;;;12.50;70.70;;;12.15;58.61;98859.97;5039647;28;21075;-78
2023/05/03 07:32:51;;;;;;;5.10;4.60;;;12.60;70.80;;;12.17;58.36;98859.78;5028244;28;20488;-80
2023/05/03 07:35:19;;;;;;;7.93;5.03;;;12.60;70.20;;;12.41;57.94;98861.06;5042643;28;20466;-80
2023/05/03 07:37:46;;;;;;;6.50;4.43;;;12.70;70.00;;;12.49;58.36;98856.47;5045594;28;20783;-76
2023/05/03 07:40:13;;;;;;;6.07;5.47;;;12.70;70.10;;;12.60;58.30;98848.56;5045090;28;20465;-77
2023/05/03 07:42:42;;;;;;;6.53;5.00;;;12.70;70.40;;;12.86;57.37;98843.34;5036430;28;20463;-77
2023/05/03 07:45:10;;;;;;;5.80;4.87;;;12.90;70.20;;;12.79;57.14;98850.63;5040148;28;20458;-76
2023/05/03 07:47:38;;;;;;;6.43;4.80;;;13.00;69.50;;;11.77;60.39;98844.22;5036476;28;20454;-78
2023/05/03 07:50:07;;;;;;;7.00;5.27;;;12.40;70.20;;;11.82;60.00;98841.72;5033347;28;20580;-77
2023/05/03 07:52:36;;;;;;;8.70;5.43;;;12.20;71.10;;;11.93;59.42;98842.19;5042476;28;20454;-77
2023/05/03 07:55:05;;;;;;;7.50;5.17;;;12.20;71.20;;;11.83;60.55;98843.41;5024882;28;20945;-75
2023/05/03 07:57:33;;;;;;;5.30;4.27;;;12.10;72.00;;;11.74;59.91;98834.63;5037184;28;20468;-81
2023/05/03 08:00:03;;;;;;;6.40;5.17;;;12.00;71.30;;;11.88;60.00;98834.66;5039787;28;21028;-78
2023/05/03 08:02:32;;;;;;;5.60;4.40;;;12.10;72.00;;;11.86;59.33;98832.16;5040117;28;20955;-79
2023/05/03 08:04:59;;;;;;;7.20;4.40;;;12.10;70.70;;;11.91;59.57;98831.56;5039889;28;20453;-77
2023/05/03 08:07:27;;;;;;;5.30;4.03;;;12.10;71.10;;;12.00;59.79;98832.19;5043466;28;20477;-75
2023/05/03 08:09:57;;;;;;;5.83;4.43;;;12.20;71.70;;;11.98;59.24;98826.16;5034540;28;20470;-80
2023/05/03 08:12:25;;;;;;;5.37;3.77;;;12.20;71.00;;;12.09;59.30;98825.59;5043893;28;20539;-71
2023/05/03 08:14:53;;;;;;;7.63;4.33;;;12.30;71.20;;;11.82;58.31;98790.28;5033330;28;20501;-77
2023/05/03 08:17:22;;;;;;;5.87;4.57;;;12.30;70.50;;;11.87;59.16;98825.69;5042747;28;20512;-79
2023/05/03 08:19:50;;;;;;;4.73;4.20;;;12.20;70.30;;;11.98;60.06;98827.00;5016234;28;20509;-80
2023/05/03 08:22:17;;;;;;;5.33;4.20;;;12.20;71.40;;;12.12;58.60;98825.16;5036313;28;20453;-78
2023/05/03 08:24:44;;;;;;;5.23;4.70;;;12.30;70.40;;;11.95;59.05;98823.84;5036708;28;20472;-73
2023/05/03 08:27:12;;;;;;;6.27;3.87;;;12.30;70.30;;;12.27;59.04;98824.16;5041291;28;20465;-78
2023/05/03 08:29:39;;;;;;;5.43;4.23;;;12.50;70.60;;;12.45;57.29;98823.56;5039488;28;20468;-75
2023/05/03 08:32:07;;;;;;;6.17;4.03;;;12.50;69.40;;;12.19;57.91;98820.59;5038152;28;20448;-73
2023/05/03 08:34:36;;;;;;;4.90;4.40;;;12.40;69.30;;;12.33;57.72;98816.03;5032832;28;20528;-75
2023/05/03 08:37:04;;;;;;;5.10;3.77;;;12.50;69.60;;;12.68;57.76;98816.84;5033778;28;20462;-73
2023/05/03 08:39:32;;;;;;;3.97;3.37;;;12.70;70.10;;;12.82;57.04;98818.50;5037632;28;20463;-76
2023/05/03 08:42:00;;;;;;;4.93;3.70;;;12.90;69.50;;;12.75;55.92;98829.38;5032045;28;20897;-80
2023/05/03 08:44:29;;;;;;;4.93;3.73;;;13.00;67.50;;;12.81;56.27;98821.44;5045722;28;20539;-79
2023/05/03 08:46:59;;;;;;;4.50;3.57;;;13.00;67.50;;;13.07;56.21;98822.44;5026564;28;20511;-75
2023/05/03 08:49:26;;;;;;;4.60;3.00;;;13.20;68.00;;;13.26;55.37;98813.41;5021643;28;20488;-75
2023/05/03 08:51:56;;;;;;;4.90;3.70;;;13.40;67.50;;;13.38;54.73;98826.31;5037949;28;20489;-73
2023/05/03 08:54:25;;;;;;;6.93;3.87;;;13.50;66.60;;;13.47;54.51;98816.94;5033682;28;20557;-75
2023/05/03 08:56:52;;;;;;;5.77;3.90;;;13.60;66.30;;;13.60;54.13;98816.88;5034696;28;20952;-75
2023/05/03 08:59:20;;;;;;;5.60;4.30;;;13.90;65.90;;;13.36;53.95;98780.41;5052215;28;20541;-77
2023/05/03 09:01:47;;;;;;;4.20;3.80;;;13.90;65.20;;;13.63;54.05;98822.91;5035565;28;20786;-73
2023/05/03 09:04:16;;;;;;;5.50;4.10;;;13.90;64.80;;;13.53;53.60;98824.19;5025880;28;20446;-74
2023/05/03 09:06:43;;;;;;;4.27;3.87;;;13.80;64.20;;;14.08;52.39;98831.03;5035757;28;20588;-77
2023/05/03 09:09:13;;;;;;;6.73;3.77;;;14.10;64.20;;;14.50;52.28;98825.09;5038194;28;20458;-75
2023/05/03 09:11:40;;;;;;;4.00;3.10;;;14.50;64.20;;;14.23;52.80;98825.28;5021458;28;20496;-75
2023/05/03 09:14:12;;;;;;;5.33;4.13;;;14.40;63.60;;;14.11;52.92;98830.59;5021726;28;20484;-76
2023/05/03 09:16:40;;;;;;;4.17;3.20;;;14.40;63.40;;;14.10;52.43;98809.91;5037466;28;20471;-69
2023/05/03 09:19:10;;;;;;;5.40;4.10;;;14.30;63.00;;;14.30;51.46;98830.69;5030312;28;20467;-70
2023/05/03 09:21:38;;;;;;;3.07;2.57;;;14.50;62.60;;;14.04;52.41;98824.38;5011708;28;20451;-69
2023/05/03 09:24:15;;;;;;;5.10;3.03;;;14.40;61.80;;;13.91;52.58;98825.28;5032598;28;20460;-70
2023/05/03 09:26:44;;;;;;;3.43;2.83;;;14.10;62.40;;;14.28;51.84;98830.06;5017703;28;20445;-71
2023/05/03 09:32:01;;;;;;;3.70;3.27;;;14.60;61.50;;;14.23;51.27;98822.56;5096401;27;20653;-71
2023/05/03 09:34:28;;;;;;;4.53;3.63;;;14.60;61.00;;;14.47;51.81;98816.53;5099589;28;20439;-69
2023/05/03 09:36:55;;;;;;;4.43;3.53;;;14.50;61.70;;;14.45;51.86;98820.31;5096803;28;20515;-69
2023/05/03 09:39:24;;;;;;;7.27;4.10;;;14.60;61.90;;;14.48;51.07;98818.19;5102034;28;21731;-71
2023/05/03 09:41:51;;;;;;;5.10;3.60;;;14.70;60.90;;;14.14;51.22;98813.03;5098775;28;20461;-71
2023/05/03 09:44:20;;;;;;;3.40;3.10;;;14.40;60.30;;;13.92;52.27;98812.53;5078353;28;20942;-70
2023/05/03 09:47:05;;;;;;;4.37;3.10;;;14.20;61.00;;;14.00;52.29;98812.28;5079062;28;20457;-70
2023/05/03 09:49:35;;;;;;;3.80;3.13;;;14.10;61.50;;;14.09;52.97;98805.53;5093759;28;20453;-69
2023/05/03 09:52:05;;;;;;;3.60;3.03;;;14.20;61.90;;;14.30;52.86;98811.66;5076587;28;20559;-71
2023/05/03 09:54:34;;;;;;;4.07;2.90;;;14.40;62.30;;;14.48;52.23;98819.06;5090764;28;20457;-70
2023/05/03 09:57:03;;;;;;;4.13;3.00;;;14.60;62.10;;;14.31;52.07;98813.31;5081219;28;20453;-71
2023/05/03 09:59:30;;;;;;;4.43;3.40;;;14.50;61.40;;;15.00;50.47;98810.66;5078199;28;20502;-71
2023/05/03 10:02:02;;;;;;;3.23;2.93;;;14.90;61.30;;;15.11;50.64;98800.91;5075879;28;20465;-77
2023/05/03 10:04:42;;;;;;;4.40;3.20;;;15.30;60.70;;;15.40;50.19;98803.94;5092647;28;20452;-78
2023/05/03 10:07:14;;;;;;;5.37;3.50;;;15.50;60.70;;;15.41;49.36;98807.50;5091991;28;20486;-77
2023/05/03 10:09:44;;;;;;;5.90;3.50;;;15.60;59.80;;;14.71;49.10;98806.75;5094317;28;20456;-75
2023/05/03 10:12:15;;;;;;;3.43;2.93;;;15.40;58.00;;;15.65;48.39;98802.16;5082224;28;20472;-76
2023/05/03 10:14:45;;;;;;;3.07;2.80;;;15.60;58.60;;;16.17;46.84;98795.41;5102862;28;20543;-72
2023/05/03 10:17:17;;;;;;;4.00;3.30;;;16.10;57.70;;;15.91;47.28;98794.75;5103187;28;20485;-74
2023/05/03 10:19:52;;;;;;;3.30;2.67;;;16.00;57.20;;;15.74;47.50;98792.63;5102432;28;20772;-79
2023/05/03 10:22:20;;;;;;;3.70;2.77;;;15.90;57.00;;;15.56;48.17;98786.16;5081611;28;20461;-74
2023/05/03 10:25:10;;;;;;;3.53;2.80;;;15.80;57.10;;;15.25;48.67;98796.16;5103045;28;20824;-74
2023/05/03 10:27:51;;;;;;;3.87;3.47;;;15.60;57.20;;;15.21;48.85;98783.25;5098068;28;20471;-77
2023/05/03 10:30:30;;;;;;;4.93;3.50;;;15.40;57.80;;;14.97;49.78;98789.34;5106111;28;20468;-79
2023/05/03 10:32:58;;;;;;;4.70;2.80;;;15.20;57.60;;;15.10;50.36;98776.66;5108936;28;20456;-76